Time;durP1;ratioP1;P1;durP2;ratioP2;P2;SDS_P1;SDS_P2;PMS_P1;PMS_P2;Temp;Humidity;BMP_temperature;BMP_pressure;BME280_temperature;BME280_humidity;BME280_pressure;Samples;Min_cycle;Max_cycle;Signal;HPM_P1;HPM_P2
2021/06/29 00:02:13;;;;;;;14.38;3.90;;;22.10;77.00;;;;;;5117531;27;20027;-63
2021/06/29 00:04:39;;;;;;;20.52;4.00;;;22.00;77.00;;;;;;5114514;27;20426;-64
2021/06/29 00:07:05;;;;;;;16.65;3.72;;;22.10;77.20;;;;;;5115014;28;20027;-64
2021/06/29 00:09:30;;;;;;;14.70;4.00;;;22.00;77.20;;;;;;5118974;27;20495;-64
2021/06/29 00:11:57;;;;;;;14.75;4.22;;;22.00;77.40;;;;;;5117986;27;20039;-64
2021/06/29 00:14:23;;;;;;;20.00;4.63;;;22.00;77.60;;;;;;5116325;27;20038;-64
2021/06/29 00:16:50;;;;;;;24.95;3.92;;;22.00;77.70;;;;;;5115110;27;20023;-64
2021/06/29 00:19:15;;;;;;;23.23;4.40;;;22.00;77.80;;;;;;5108106;28;20047;-64
2021/06/29 00:21:41;;;;;;;20.83;5.20;;;21.90;78.00;;;;;;5117266;27;20401;-64
2021/06/29 00:24:10;;;;;;;23.10;4.80;;;21.90;78.10;;;;;;5108764;28;20028;-64
2021/06/29 00:26:36;;;;;;;20.88;4.13;;;21.90;78.30;;;;;;5115019;28;20051;-64
2021/06/29 00:29:01;;;;;;;13.18;4.10;;;21.90;78.40;;;;;;5113133;28;20069;-63
2021/06/29 00:31:28;;;;;;;21.50;4.35;;;21.90;78.50;;;;;;5115142;27;20028;-64
2021/06/29 00:33:54;;;;;;;18.50;4.78;;;21.90;78.70;;;;;;5095399;28;20036;-64
2021/06/29 00:36:20;;;;;;;16.80;4.45;;;21.90;78.80;;;;;;5121193;27;20107;-64
2021/06/29 00:38:48;;;;;;;29.70;3.95;;;21.90;78.90;;;;;;5123394;27;20348;-63
2021/06/29 00:41:14;;;;;;;21.55;4.53;;;21.80;79.00;;;;;;5115416;28;20164;-64
2021/06/29 00:43:51;;;;;;;20.42;5.15;;;21.80;79.30;;;;;;5124683;27;20080;-63
2021/06/29 00:46:17;;;;;;;20.33;4.22;;;21.80;79.40;;;;;;5115119;27;20023;-64
2021/06/29 00:48:44;;;;;;;23.45;5.25;;;21.80;79.60;;;;;;5115724;27;20055;-63
2021/06/29 00:51:15;;;;;;;22.25;4.72;;;21.80;79.70;;;;;;5118270;27;20035;-64
2021/06/29 00:53:42;;;;;;;20.30;4.75;;;21.80;80.00;;;;;;5112861;27;20032;-63
2021/06/29 00:56:14;;;;;;;19.88;4.70;;;21.80;80.00;;;;;;5121612;27;20493;-64
2021/06/29 00:58:41;;;;;;;27.52;6.05;;;21.80;80.40;;;;;;5101306;28;20031;-64
2021/06/29 01:01:07;;;;;;;23.42;4.80;;;21.80;80.30;;;;;;5115257;27;20023;-64
2021/06/29 01:03:33;;;;;;;28.67;5.32;;;21.80;80.40;;;;;;5111562;27;20038;-64
2021/06/29 01:05:58;;;;;;;27.30;5.97;;;21.80;80.60;;;;;;5118423;27;20062;-63
2021/06/29 01:08:24;;;;;;;20.88;5.65;;;21.80;80.70;;;;;;5094401;28;20085;-63
2021/06/29 01:10:50;;;;;;;33.38;6.75;;;21.70;80.80;;;;;;5114129;28;20031;-64
2021/06/29 01:13:34;;;;;;;27.80;5.18;;;21.80;81.10;;;;;;5114083;28;20436;-64
2021/06/29 01:16:02;;;;;;;26.02;5.97;;;21.70;81.10;;;;;;5113301;28;20047;-63
2021/06/29 01:18:28;;;;;;;25.13;4.43;;;21.70;81.10;;;;;;5113886;28;20110;-63
2021/06/29 01:20:55;;;;;;;32.25;5.10;;;21.70;81.10;;;;;;5121649;27;20115;-64
2021/06/29 01:23:23;;;;;;;26.17;6.00;;;21.70;81.20;;;;;;5113572;28;20024;-64
2021/06/29 01:26:31;;;;;;;38.97;7.13;;;21.70;81.30;;;;;;5114434;28;20092;-64
2021/06/29 01:31:22;;;;;;;18.35;4.45;;;21.70;81.80;;;;;;5113800;28;20081;-64
2021/06/29 01:33:49;;;;;;;27.20;6.32;;;21.70;81.70;;;;;;5108585;27;20458;-64
2021/06/29 01:36:22;;;;;;;25.92;6.13;;;21.70;81.70;;;;;;5113370;28;20027;-64
2021/06/29 01:38:50;;;;;;;33.00;7.38;;;21.70;81.60;;;;;;5115846;27;20470;-64
2021/06/29 01:41:19;;;;;;;23.90;6.15;;;21.60;81.50;;;;;;5118037;27;20126;-64
2021/06/29 01:43:58;;;;;;;24.88;5.43;;;21.60;81.60;;;;;;5109244;28;20074;-64
2021/06/29 01:46:27;;;;;;;30.50;6.32;;;21.70;81.80;;;;;;5110664;28;20032;-63
2021/06/29 01:48:54;;;;;;;28.77;6.28;;;21.60;81.80;;;;;;5113650;28;20028;-64
2021/06/29 01:51:21;;;;;;;38.28;6.60;;;21.70;82.10;;;;;;5111638;28;20082;-63
2021/06/29 01:53:48;;;;;;;27.42;5.90;;;21.70;82.10;;;;;;5113517;28;20069;-64
2021/06/29 01:56:15;;;;;;;32.25;5.80;;;21.60;82.20;;;;;;5124841;27;20023;-64
2021/06/29 01:58:52;;;;;;;24.38;6.43;;;21.60;83.00;;;;;;5127925;27;20075;-64
2021/06/29 02:01:18;;;;;;;27.77;7.07;;;21.60;82.60;;;;;;5113885;27;20049;-65
2021/06/29 02:03:44;;;;;;;34.53;5.97;;;21.60;82.70;;;;;;5117666;27;20030;-64
2021/06/29 02:06:10;;;;;;;32.33;6.05;;;21.60;82.90;;;;;;5128849;27;20041;-63
2021/06/29 02:08:35;;;;;;;22.13;5.90;;;21.60;82.90;;;;;;5111647;28;20028;-63
2021/06/29 02:11:01;;;;;;;27.13;5.88;;;21.70;83.00;;;;;;5101813;27;20118;-63
2021/06/29 02:13:27;;;;;;;19.77;6.13;;;21.60;83.00;;;;;;5107611;27;20050;-63
2021/06/29 02:15:55;;;;;;;22.63;5.38;;;21.60;83.10;;;;;;5095200;28;20069;-63
2021/06/29 02:18:21;;;;;;;19.92;5.07;;;21.60;83.20;;;;;;5113466;27;20035;-64
2021/06/29 02:20:48;;;;;;;25.63;4.68;;;21.60;83.40;;;;;;5112514;28;20031;-64
2021/06/29 02:23:14;;;;;;;15.85;4.43;;;21.60;83.60;;;;;;5116492;27;20059;-64
2021/06/29 02:25:40;;;;;;;26.23;6.28;;;21.60;83.70;;;;;;5112591;28;20055;-63
2021/06/29 02:28:05;;;;;;;20.52;4.70;;;21.50;84.00;;;;;;5114103;27;20487;-64
2021/06/29 02:30:31;;;;;;;21.40;4.78;;;21.60;84.10;;;;;;5111304;28;20023;-64
2021/06/29 02:32:57;;;;;;;25.65;5.90;;;21.50;84.10;;;;;;5109860;28;20379;-64
2021/06/29 02:35:23;;;;;;;14.85;5.32;;;21.50;84.10;;;;;;5111483;28;20156;-64
2021/06/29 02:37:48;;;;;;;18.90;6.18;;;21.50;84.20;;;;;;5111651;28;20035;-64
2021/06/29 02:40:14;;;;;;;23.08;6.80;;;21.50;84.20;;;;;;5111218;28;20032;-64
2021/06/29 02:42:40;;;;;;;21.15;5.40;;;21.50;84.10;;;;;;5113652;28;20118;-64
2021/06/29 02:45:07;;;;;;;22.38;5.72;;;21.50;84.10;;;;;;5113820;28;20157;-64
2021/06/29 02:47:35;;;;;;;21.83;5.93;;;21.60;84.20;;;;;;5112137;28;20028;-64
2021/06/29 02:50:01;;;;;;;22.23;5.75;;;21.60;84.10;;;;;;5118829;28;20023;-64
2021/06/29 02:52:27;;;;;;;18.38;4.70;;;21.60;84.20;;;;;;5115257;28;20478;-64
2021/06/29 02:54:52;;;;;;;19.02;5.25;;;21.50;84.10;;;;;;5112467;28;20027;-64
2021/06/29 02:57:18;;;;;;;26.10;4.72;;;21.50;84.00;;;;;;5112794;28;20032;-64
2021/06/29 02:59:44;;;;;;;19.02;5.00;;;21.50;84.10;;;;;;5111454;28;20028;-64
2021/06/29 03:02:10;;;;;;;20.08;5.70;;;21.50;84.10;;;;;;5111869;28;20035;-63
2021/06/29 03:04:35;;;;;;;18.38;4.30;;;21.60;84.10;;;;;;5121140;28;20027;-64
2021/06/29 03:07:02;;;;;;;22.60;5.53;;;21.50;84.10;;;;;;5121232;28;20501;-64
2021/06/29 03:09:27;;;;;;;26.83;4.95;;;21.50;84.10;;;;;;5121691;28;20061;-64
2021/06/29 03:11:53;;;;;;;19.50;5.95;;;21.60;84.20;;;;;;5110918;28;20055;-64
2021/06/29 03:14:19;;;;;;;14.98;4.45;;;21.50;84.10;;;;;;5111582;28;20026;-64
2021/06/29 03:16:44;;;;;;;23.02;5.43;;;21.50;84.00;;;;;;5111932;28;20024;-64
2021/06/29 03:19:10;;;;;;;22.17;5.15;;;21.60;84.00;;;;;;5114853;28;20019;-64
2021/06/29 03:21:36;;;;;;;21.85;4.95;;;21.60;83.80;;;;;;5115381;28;20114;-64
2021/06/29 03:24:03;;;;;;;21.75;5.40;;;21.60;83.60;;;;;;5118437;27;20428;-64
2021/06/29 03:26:29;;;;;;;21.77;4.15;;;21.60;83.60;;;;;;5117494;27;20475;-64
2021/06/29 03:28:54;;;;;;;23.55;4.90;;;21.50;83.40;;;;;;5116999;27;20115;-64
2021/06/29 03:31:20;;;;;;;19.85;4.35;;;21.50;83.40;;;;;;5114919;28;20470;-64
2021/06/29 03:33:46;;;;;;;18.00;5.00;;;21.50;83.40;;;;;;5125765;27;20031;-64
2021/06/29 03:36:12;;;;;;;19.40;4.57;;;21.50;83.40;;;;;;5117319;27;20027;-63
2021/06/29 03:38:38;;;;;;;24.40;4.95;;;21.50;83.50;;;;;;5131014;27;20027;-63
2021/06/29 03:41:04;;;;;;;16.27;5.25;;;21.50;83.50;;;;;;5128866;27;20029;-63
2021/06/29 03:43:34;;;;;;;18.40;4.60;;;21.40;83.50;;;;;;5124197;27;20386;-63
2021/06/29 03:46:00;;;;;;;16.73;5.40;;;21.50;83.70;;;;;;5114869;28;20032;-63
2021/06/29 03:48:25;;;;;;;15.40;4.50;;;21.40;83.70;;;;;;5116543;27;20028;-63
2021/06/29 03:50:51;;;;;;;27.63;5.13;;;21.40;83.80;;;;;;5128995;27;20034;-63
2021/06/29 03:53:17;;;;;;;17.48;4.70;;;21.40;83.90;;;;;;5116903;27;20122;-63
2021/06/29 03:55:42;;;;;;;16.88;4.05;;;21.40;83.90;;;;;;5115070;28;20058;-63
2021/06/29 03:58:08;;;;;;;18.65;4.93;;;21.40;83.90;;;;;;5124191;27;20028;-63
2021/06/29 04:00:34;;;;;;;22.80;5.25;;;21.40;84.00;;;;;;5131141;27;20072;-63
2021/06/29 04:02:59;;;;;;;21.35;5.38;;;21.30;84.10;;;;;;5125757;27;20031;-66
2021/06/29 04:05:25;;;;;;;18.60;5.20;;;21.40;84.20;;;;;;5120879;27;20033;-65
2021/06/29 04:07:51;;;;;;;17.17;4.97;;;21.40;84.30;;;;;;5118209;27;20070;-64
2021/06/29 04:10:17;;;;;;;23.48;5.05;;;21.40;84.40;;;;;;5121552;27;20115;-64
2021/06/29 04:12:42;;;;;;;17.85;4.60;;;21.40;84.50;;;;;;5115233;28;20058;-64
2021/06/29 04:15:09;;;;;;;18.65;4.60;;;21.40;84.50;;;;;;5115939;28;20031;-64
2021/06/29 04:17:36;;;;;;;24.08;5.00;;;21.30;84.50;;;;;;5125682;27;20019;-64
2021/06/29 04:20:03;;;;;;;17.88;4.75;;;21.40;84.70;;;;;;5120843;27;20027;-64
2021/06/29 04:22:28;;;;;;;17.17;4.97;;;21.40;84.70;;;;;;5127556;27;20111;-63
2021/06/29 04:24:56;;;;;;;23.63;5.93;;;21.30;84.70;;;;;;5121336;27;20138;-64
2021/06/29 04:27:22;;;;;;;25.95;4.85;;;21.40;84.80;;;;;;5121600;27;20110;-64
2021/06/29 04:29:49;;;;;;;21.52;5.38;;;21.40;84.90;;;;;;5121859;27;20071;-64
2021/06/29 04:32:15;;;;;;;20.95;5.03;;;21.40;85.00;;;;;;5125030;27;20032;-64
2021/06/29 04:34:44;;;;;;;20.40;5.57;;;21.40;84.90;;;;;;5117720;27;20020;-64
2021/06/29 04:37:09;;;;;;;18.15;5.47;;;21.50;85.10;;;;;;5116706;27;20036;-64
2021/06/29 04:39:35;;;;;;;22.42;5.28;;;21.40;85.00;;;;;;5113535;27;20027;-64
2021/06/29 04:42:01;;;;;;;25.30;5.90;;;21.40;85.00;;;;;;5115178;28;20028;-64
2021/06/29 04:44:27;;;;;;;20.45;5.13;;;21.40;85.00;;;;;;5114135;28;20043;-64
2021/06/29 04:46:53;;;;;;;16.75;4.25;;;21.50;85.00;;;;;;5113544;27;20027;-64
2021/06/29 04:49:19;;;;;;;14.40;4.40;;;21.40;84.90;;;;;;5115194;27;20034;-64
2021/06/29 04:51:45;;;;;;;28.83;5.45;;;21.40;84.40;;;;;;5114952;28;20039;-64
2021/06/29 04:54:11;;;;;;;13.93;4.38;;;21.40;84.80;;;;;;5114067;28;20039;-64
2021/06/29 04:56:36;;;;;;;20.17;5.80;;;21.50;84.80;;;;;;5116666;27;20028;-64
2021/06/29 04:59:02;;;;;;;18.30;5.53;;;21.50;84.70;;;;;;5129155;27;20114;-64
2021/06/29 05:01:30;;;;;;;20.42;4.47;;;21.40;84.50;;;;;;5124274;27;20034;-64
2021/06/29 05:03:56;;;;;;;16.52;4.63;;;21.40;84.40;;;;;;5130746;27;20117;-64
2021/06/29 05:06:22;;;;;;;11.07;4.03;;;21.40;84.20;;;;;;5112538;27;20031;-64
2021/06/29 05:08:48;;;;;;;16.73;4.45;;;21.40;84.10;;;;;;5127692;27;20035;-64
2021/06/29 05:11:14;;;;;;;16.17;4.47;;;21.30;83.90;;;;;;5125375;27;20485;-64
2021/06/29 05:13:40;;;;;;;23.67;4.85;;;21.30;84.00;;;;;;5120317;27;20038;-64
2021/06/29 05:16:06;;;;;;;24.90;5.18;;;21.30;84.20;;;;;;5114230;28;20110;-64
2021/06/29 05:18:34;;;;;;;17.77;5.22;;;21.30;84.00;;;;;;5122024;27;20023;-64
2021/06/29 05:21:00;;;;;;;22.02;4.05;;;21.30;84.00;;;;;;5113062;28;20060;-67
2021/06/29 05:23:29;;;;;;;19.65;4.88;;;21.30;84.00;;;;;;5096270;28;20066;-64
2021/06/29 05:25:55;;;;;;;23.63;4.72;;;21.30;83.90;;;;;;5113844;27;20080;-64
2021/06/29 05:28:22;;;;;;;24.00;4.53;;;21.30;83.70;;;;;;5114957;27;20416;-65
2021/06/29 05:30:55;;;;;;;22.35;5.05;;;21.30;83.60;;;;;;5116538;27;20057;-65
2021/06/29 05:33:21;;;;;;;22.30;5.53;;;21.30;83.80;;;;;;5120671;27;20043;-64
2021/06/29 05:35:47;;;;;;;26.67;4.88;;;21.30;83.90;;;;;;5115730;27;20020;-64
2021/06/29 05:38:13;;;;;;;25.95;4.93;;;21.30;84.00;;;;;;5118761;27;20489;-65
2021/06/29 05:40:39;;;;;;;16.95;5.07;;;21.20;84.10;;;;;;5128112;27;20023;-65
2021/06/29 05:43:05;;;;;;;16.55;4.63;;;21.20;84.20;;;;;;5095303;27;20024;-65
2021/06/29 05:45:32;;;;;;;22.98;4.57;;;21.20;84.40;;;;;;5118580;27;20046;-65
2021/06/29 05:47:58;;;;;;;27.52;5.78;;;21.20;84.20;;;;;;5118257;27;20028;-64
2021/06/29 05:50:24;;;;;;;21.52;4.88;;;21.20;84.40;;;;;;5122126;27;20027;-64
2021/06/29 05:52:50;;;;;;;17.73;5.00;;;21.20;84.40;;;;;;5118408;27;20051;-64
2021/06/29 05:55:16;;;;;;;24.13;6.00;;;21.20;84.50;;;;;;5117993;27;20019;-65
2021/06/29 05:57:42;;;;;;;24.17;5.45;;;21.20;84.70;;;;;;5125155;27;20020;-65
2021/06/29 06:00:16;;;;;;;21.73;5.35;;;21.20;84.60;;;;;;5118009;27;20434;-65
2021/06/29 06:02:42;;;;;;;13.73;4.55;;;21.10;84.50;;;;;;5113177;27;20035;-65
2021/06/29 06:05:10;;;;;;;28.60;6.60;;;21.10;84.40;;;;;;5121292;27;20350;-65
2021/06/29 06:07:37;;;;;;;15.68;5.50;;;21.20;84.60;;;;;;5117158;27;20031;-65
2021/06/29 06:10:07;;;;;;;18.30;5.07;;;21.10;84.60;;;;;;5121147;27;20039;-64
2021/06/29 06:12:33;;;;;;;21.10;6.03;;;21.10;84.70;;;;;;5120211;27;20375;-64
2021/06/29 06:14:59;;;;;;;22.52;5.55;;;21.10;84.70;;;;;;5116564;27;20024;-64
2021/06/29 06:17:27;;;;;;;23.85;6.75;;;21.20;84.90;;;;;;5122102;27;20431;-64
2021/06/29 06:19:54;;;;;;;24.70;5.68;;;21.10;85.00;;;;;;5100801;27;20089;-64
2021/06/29 06:22:21;;;;;;;19.00;5.30;;;21.20;85.20;;;;;;5117306;27;20470;-65
2021/06/29 06:24:47;;;;;;;26.58;5.40;;;21.10;85.10;;;;;;5118568;27;20019;-65
2021/06/29 06:27:15;;;;;;;32.88;6.13;;;21.20;85.20;;;;;;5112494;27;20367;-64
2021/06/29 06:29:41;;;;;;;24.92;6.18;;;21.20;85.10;;;;;;5105957;28;20020;-64
2021/06/29 06:32:07;;;;;;;22.67;5.32;;;21.20;85.10;;;;;;5112317;28;20043;-64
2021/06/29 06:34:33;;;;;;;23.38;6.10;;;21.20;85.40;;;;;;5114831;27;20032;-64
2021/06/29 06:36:59;;;;;;;32.60;6.88;;;21.10;85.20;;;;;;5115376;27;20034;-64
2021/06/29 06:39:25;;;;;;;25.42;7.22;;;21.20;85.20;;;;;;5117458;28;20104;-64
2021/06/29 06:41:53;;;;;;;28.25;7.05;;;21.10;85.30;;;;;;5107663;28;20036;-64
2021/06/29 06:44:19;;;;;;;23.55;5.95;;;21.20;85.50;;;;;;5108081;28;20405;-64
2021/06/29 06:46:45;;;;;;;26.38;6.50;;;21.20;85.60;;;;;;5095514;28;20032;-64
2021/06/29 06:49:10;;;;;;;20.67;6.60;;;21.20;85.70;;;;;;5115147;28;20478;-64
2021/06/29 06:51:36;;;;;;;28.85;6.70;;;21.20;85.80;;;;;;5103398;28;20036;-64
2021/06/29 06:54:02;;;;;;;30.08;7.32;;;21.20;85.70;;;;;;5111501;27;20425;-64
2021/06/29 06:56:28;;;;;;;21.38;5.72;;;21.20;85.80;;;;;;5122096;27;20034;-64
2021/06/29 06:58:53;;;;;;;32.17;6.97;;;21.20;86.00;;;;;;5131501;27;20055;-64
2021/06/29 07:01:19;;;;;;;24.33;5.93;;;21.30;86.30;;;;;;5116160;27;20027;-64
2021/06/29 07:03:45;;;;;;;30.77;6.88;;;21.30;86.50;;;;;;5114088;28;20024;-64
2021/06/29 07:06:14;;;;;;;31.15;7.68;;;21.30;86.50;;;;;;5124969;27;20382;-63
2021/06/29 07:08:41;;;;;;;32.95;9.18;;;21.30;86.70;;;;;;5124625;27;20031;-64
2021/06/29 07:11:07;;;;;;;29.02;7.93;;;21.40;86.80;;;;;;5110505;28;20051;-64
2021/06/29 07:13:34;;;;;;;27.75;8.18;;;21.30;86.70;;;;;;5123296;27;20390;-64
2021/06/29 07:15:59;;;;;;;29.35;8.25;;;21.30;87.00;;;;;;5119162;27;20028;-64
2021/06/29 07:18:25;;;;;;;28.60;7.47;;;21.40;87.10;;;;;;5123219;27;20028;-64
2021/06/29 07:20:51;;;;;;;39.55;8.63;;;21.40;87.10;;;;;;5114420;27;20038;-64
2021/06/29 07:23:18;;;;;;;36.67;9.57;;;21.40;87.10;;;;;;5119801;27;20102;-64
2021/06/29 07:25:43;;;;;;;32.15;9.70;;;21.50;87.40;;;;;;5100305;27;20035;-64
2021/06/29 07:28:09;;;;;;;32.08;8.70;;;21.50;87.40;;;;;;5115738;27;20027;-64
2021/06/29 07:30:36;;;;;;;38.65;10.18;;;21.50;87.40;;;;;;5118830;27;20039;-64
2021/06/29 07:33:03;;;;;;;35.92;10.23;;;21.50;87.40;;;;;;5117867;27;20044;-64
2021/06/29 07:35:30;;;;;;;40.35;10.30;;;21.60;87.40;;;;;;5115616;28;20470;-64
2021/06/29 07:37:57;;;;;;;35.42;9.48;;;21.60;87.40;;;;;;5114523;27;20501;-64
2021/06/29 07:40:25;;;;;;;31.08;9.40;;;21.60;87.30;;;;;;5115487;28;20023;-64
2021/06/29 07:42:51;;;;;;;27.80;9.95;;;21.70;87.30;;;;;;5121594;27;20035;-64
2021/06/29 07:45:17;;;;;;;31.52;10.73;;;21.70;87.30;;;;;;5116702;27;20608;-63
2021/06/29 07:47:43;;;;;;;38.20;10.57;;;21.70;87.20;;;;;;5115530;28;20110;-64
2021/06/29 07:50:13;;;;;;;45.88;12.27;;;21.80;87.30;;;;;;5114947;28;20379;-63
2021/06/29 07:52:39;;;;;;;44.75;12.45;;;21.80;87.10;;;;;;5112778;28;20110;-64
2021/06/29 07:55:06;;;;;;;47.20;12.55;;;21.80;87.00;;;;;;5122243;27;20098;-64
2021/06/29 07:57:32;;;;;;;43.47;11.65;;;21.80;87.60;;;;;;5118081;27;20097;-64
2021/06/29 07:59:58;;;;;;;48.13;13.00;;;21.90;87.10;;;;;;5112057;28;20420;-64
2021/06/29 08:02:24;;;;;;;45.13;13.35;;;21.90;87.10;;;;;;5123382;27;20034;-64
2021/06/29 08:04:50;;;;;;;40.88;11.98;;;21.90;87.10;;;;;;5122679;27;20073;-64
2021/06/29 08:07:18;;;;;;;38.22;12.60;;;21.90;86.90;;;;;;5114999;28;20028;-64
2021/06/29 08:09:44;;;;;;;65.47;15.50;;;22.00;87.00;;;;;;5120964;27;20115;-64
2021/06/29 08:12:10;;;;;;;44.65;12.60;;;22.00;87.00;;;;;;5118069;27;20158;-64
2021/06/29 08:14:36;;;;;;;43.03;12.52;;;22.00;87.00;;;;;;5126288;27;20027;-64
2021/06/29 08:17:04;;;;;;;47.53;13.63;;;22.00;86.90;;;;;;5109951;27;20043;-64
2021/06/29 08:19:30;;;;;;;44.75;12.43;;;22.10;87.60;;;;;;5121480;27;20031;-64
2021/06/29 08:21:57;;;;;;;49.17;13.35;;;22.10;86.80;;;;;;5114982;27;20916;-64
2021/06/29 08:24:23;;;;;;;36.33;12.15;;;22.10;86.70;;;;;;5116986;27;20478;-64
2021/06/29 08:26:49;;;;;;;46.42;15.15;;;22.20;86.70;;;;;;5114827;28;20347;-64
2021/06/29 08:29:15;;;;;;;48.90;14.57;;;22.20;86.70;;;;;;5112117;28;20051;-64
2021/06/29 08:31:41;;;;;;;41.40;13.27;;;22.20;86.60;;;;;;5113954;28;20036;-64
2021/06/29 08:34:07;;;;;;;59.50;16.10;;;22.20;86.50;;;;;;5114156;28;20103;-64
2021/06/29 08:36:41;;;;;;;42.80;14.57;;;22.20;86.70;;;;;;5118496;27;20015;-64
2021/06/29 08:39:06;;;;;;;;;;;22.30;86.70;;;;;;5118196;27;20130;-64
2021/06/29 08:41:32;;;;;;;46.90;16.58;;;22.40;86.30;;;;;;5113642;28;19997;-64
2021/06/29 08:43:58;;;;;;;41.20;12.55;;;22.30;86.00;;;;;;5112643;28;20032;-64
2021/06/29 08:46:24;;;;;;;50.60;17.10;;;22.30;85.80;;;;;;5119311;27;20028;-64
2021/06/29 08:48:52;;;;;;;43.25;16.50;;;22.40;85.40;;;;;;5118885;27;20110;-64
2021/06/29 08:51:18;;;;;;;46.20;16.55;;;22.40;85.60;;;;;;5114706;27;20035;-64
2021/06/29 08:53:44;;;;;;;45.80;17.52;;;22.40;85.60;;;;;;5119985;27;20036;-64
2021/06/29 08:56:15;;;;;;;51.45;17.95;;;22.40;85.40;;;;;;5120497;27;20023;-68
2021/06/29 08:58:44;;;;;;;47.92;16.20;;;22.50;85.50;;;;;;5124800;27;20027;-64
2021/06/29 09:01:09;;;;;;;48.35;17.42;;;22.50;85.30;;;;;;5117076;27;20127;-64
2021/06/29 09:03:35;;;;;;;39.13;18.27;;;22.50;85.30;;;;;;5119278;27;20094;-64
2021/06/29 09:06:01;;;;;;;41.22;15.63;;;22.60;84.90;;;;;;5121884;27;20038;-62
2021/06/29 09:08:27;;;;;;;46.80;16.75;;;22.60;85.00;;;;;;5120246;27;20038;-62
2021/06/29 09:11:17;;;;;;;49.38;16.05;;;22.60;84.70;;;;;;5120465;27;20049;-64
2021/06/29 09:14:04;;;;;;;52.22;17.77;;;22.60;85.00;;;;;;5120662;27;20023;-64
2021/06/29 09:16:30;;;;;;;45.95;16.63;;;22.70;85.00;;;;;;5117107;27;20475;-64
2021/06/29 09:18:56;;;;;;;52.53;17.85;;;22.70;84.70;;;;;;5113902;27;20029;-64
2021/06/29 09:21:24;;;;;;;46.25;17.15;;;22.70;84.70;;;;;;5121894;27;20027;-64
2021/06/29 09:23:51;;;;;;;56.58;17.67;;;22.80;84.90;;;;;;5118953;27;20024;-64
2021/06/29 09:26:21;;;;;;;50.97;17.48;;;22.80;84.70;;;;;;5119308;27;20068;-64
2021/06/29 09:28:50;;;;;;;44.92;17.23;;;22.80;84.70;;;;;;5120667;27;20023;-64
2021/06/29 09:31:18;;;;;;;57.08;18.85;;;22.80;84.70;;;;;;5116335;27;20123;-64
2021/06/29 09:34:00;;;;;;;52.78;17.63;;;22.90;84.70;;;;;;5125209;27;20117;-64
2021/06/29 09:36:31;;;;;;;52.45;17.38;;;22.90;84.60;;;;;;5102406;28;20073;-64
2021/06/29 09:39:00;;;;;;;53.45;18.25;;;22.90;84.50;;;;;;5119263;27;20028;-64
2021/06/29 09:41:31;;;;;;;43.75;18.10;;;23.00;84.30;;;;;;5110063;28;20028;-64
2021/06/29 09:44:02;;;;;;;51.17;19.50;;;23.00;84.50;;;;;;5120794;27;20482;-64
2021/06/29 09:46:28;;;;;;;45.97;16.90;;;23.00;84.20;;;;;;5121733;27;20035;-64
2021/06/29 09:49:00;;;;;;;47.00;19.00;;;22.90;83.50;;;;;;5119229;27;20057;-64
2021/06/29 09:51:32;;;;;;;47.00;18.40;;;23.00;83.90;;;;;;5117354;27;20050;-64
2021/06/29 09:54:03;;;;;;;47.25;17.70;;;23.00;83.90;;;;;;5114496;27;20043;-67
2021/06/29 09:56:52;;;;;;;42.55;17.15;;;23.00;83.80;;;;;;5113214;27;20114;-64
2021/06/29 09:59:20;;;;;;;44.05;19.45;;;23.00;83.50;;;;;;5115633;27;20031;-64
2021/06/29 10:01:46;;;;;;;48.95;18.70;;;23.00;83.50;;;;;;5113371;27;20451;-65
2021/06/29 10:04:12;;;;;;;52.97;19.35;;;23.00;83.00;;;;;;5106472;28;20123;-64
2021/06/29 10:06:41;;;;;;;57.50;19.30;;;23.10;83.40;;;;;;5115671;27;20023;-64
2021/06/29 10:09:07;;;;;;;48.55;16.63;;;23.10;83.40;;;;;;5110498;27;20031;-64
2021/06/29 10:11:38;;;;;;;52.67;15.48;;;23.10;83.30;;;;;;5117957;27;20561;-65
2021/06/29 10:14:09;;;;;;;43.78;17.73;;;23.10;83.00;;;;;;5113141;28;20027;-65
2021/06/29 10:16:43;;;;;;;55.97;16.92;;;23.10;82.30;;;;;;5117383;27;20071;-65
2021/06/29 10:21:50;;;;;;;48.50;17.50;;;23.10;82.70;;;;;;5118174;27;20030;-64
2021/06/29 10:24:20;;;;;;;55.40;18.63;;;23.10;82.30;;;;;;5119728;27;20049;-64
2021/06/29 10:26:48;;;;;;;50.33;18.15;;;23.10;82.20;;;;;;5108911;28;20072;-64
2021/06/29 10:29:16;;;;;;;44.85;18.75;;;23.10;82.60;;;;;;5116176;27;20106;-64
2021/06/29 10:31:53;;;;;;;61.08;17.67;;;23.10;83.20;;;;;;5118624;27;20054;-63
2021/06/29 10:34:20;;;;;;;48.58;19.00;;;23.20;83.80;;;;;;5114127;28;20077;-64
2021/06/29 10:36:49;;;;;;;60.45;18.88;;;23.20;83.70;;;;;;5118177;27;20023;-63
2021/06/29 10:39:17;;;;;;;63.85;22.30;;;23.20;83.40;;;;;;5120256;27;20031;-64
2021/06/29 10:41:46;;;;;;;47.53;18.63;;;23.30;83.50;;;;;;5119122;27;20027;-64
2021/06/29 10:44:17;;;;;;;52.92;18.90;;;23.40;83.30;;;;;;5119888;27;20016;-64
2021/06/29 10:46:49;;;;;;;56.20;19.00;;;23.40;83.30;;;;;;5111287;28;20382;-64
2021/06/29 10:49:27;;;;;;;51.50;20.75;;;23.40;82.80;;;;;;5121437;27;20031;-64
2021/06/29 10:51:52;;;;;;;53.90;19.77;;;23.30;83.00;;;;;;5115939;28;20038;-64
2021/06/29 10:54:42;;;;;;;56.55;20.50;;;23.40;82.70;;;;;;5107809;28;20085;-64
2021/06/29 10:57:12;;;;;;;54.97;19.20;;;23.40;82.20;;;;;;5112166;28;20031;-64
2021/06/29 10:59:40;;;;;;;60.55;19.80;;;23.40;82.80;;;;;;5127032;28;20091;-64
2021/06/29 11:02:08;;;;;;;61.72;20.23;;;23.50;83.00;;;;;;5125051;28;20027;-64
2021/06/29 11:04:54;;;;;;;59.90;19.83;;;23.50;83.10;;;;;;5120312;28;20038;-65
2021/06/29 11:07:26;;;;;;;46.17;17.45;;;23.50;83.00;;;;;;5115210;28;20019;-64
2021/06/29 11:10:04;;;;;;;57.83;19.33;;;23.50;82.90;;;;;;5118524;28;20124;-64
2021/06/29 11:12:50;;;;;;;67.15;20.23;;;23.60;82.50;;;;;;5117024;28;20099;-64
2021/06/29 11:15:16;;;;;;;58.70;18.48;;;23.50;82.90;;;;;;5113607;28;20073;-64
2021/06/29 11:17:48;;;;;;;57.70;20.38;;;23.60;83.10;;;;;;5112900;28;20027;-64
2021/06/29 11:20:17;;;;;;;63.40;18.73;;;23.70;83.10;;;;;;5109025;28;20039;-64
2021/06/29 11:22:52;;;;;;;56.92;18.75;;;23.60;83.10;;;;;;5111275;28;20055;-64
2021/06/29 11:25:39;;;;;;;66.85;19.70;;;23.70;82.70;;;;;;5115704;28;20036;-64
2021/06/29 11:28:16;;;;;;;58.72;18.35;;;23.70;82.40;;;;;;5116508;28;20462;-63
2021/06/29 11:31:10;;;;;;;59.47;19.35;;;23.70;82.10;;;;;;5122165;28;20027;-64
2021/06/29 11:33:38;;;;;;;51.83;20.27;;;23.60;82.10;;;;;;5107389;28;20496;-64
2021/06/29 11:36:06;;;;;;;67.10;20.85;;;23.70;82.40;;;;;;5119059;28;20076;-64
2021/06/29 11:38:41;;;;;;;61.92;19.50;;;23.70;82.60;;;;;;5114215;28;20079;-64
2021/06/29 11:41:25;;;;;;;68.32;21.48;;;23.70;82.60;;;;;;5113374;27;20465;-64
2021/06/29 11:43:52;;;;;;;60.28;20.50;;;23.70;82.50;;;;;;5107445;28;20513;-64
2021/06/29 11:46:45;;;;;;;65.10;20.45;;;23.70;82.40;;;;;;5121729;27;20042;-64
2021/06/29 11:49:15;;;;;;;62.88;19.38;;;23.70;82.20;;;;;;5120258;27;20038;-64
2021/06/29 11:52:12;;;;;;;50.65;18.25;;;23.70;81.70;;;;;;5128173;27;20033;-64
2021/06/29 11:55:02;;;;;;;51.13;18.65;;;23.70;81.50;;;;;;5122220;27;20085;-64
2021/06/29 11:57:53;;;;;;;55.33;18.98;;;23.70;81.70;;;;;;5118739;27;20035;-63
2021/06/29 12:00:36;;;;;;;59.03;18.35;;;23.70;81.80;;;;;;5125115;27;20415;-64
2021/06/29 12:03:12;;;;;;;53.25;17.77;;;23.70;82.20;;;;;;5123456;27;20064;-64
2021/06/29 12:05:39;;;;;;;60.03;18.00;;;23.70;82.60;;;;;;5124994;27;20061;-73
2021/06/29 12:08:10;;;;;;;55.70;19.20;;;23.80;82.60;;;;;;5125405;27;20034;-75
2021/06/29 12:10:47;;;;;;;46.50;16.77;;;23.80;82.40;;;;;;5115530;28;20027;-75
2021/06/29 12:13:17;;;;;;;62.50;18.33;;;23.80;82.30;;;;;;5127569;27;20107;-75
2021/06/29 12:15:52;;;;;;;47.92;18.65;;;23.80;82.20;;;;;;5113172;28;20100;-75
2021/06/29 12:18:23;;;;;;;52.75;17.40;;;23.80;82.10;;;;;;5118473;27;20030;-75
2021/06/29 12:20:54;;;;;;;45.90;16.63;;;23.80;82.00;;;;;;5112025;28;20563;-75
2021/06/29 12:23:26;;;;;;;51.40;15.77;;;23.80;82.10;;;;;;5113542;28;20059;-75
2021/06/29 12:25:54;;;;;;;39.15;14.00;;;23.80;82.20;;;;;;5113635;28;20114;-75
2021/06/29 12:28:22;;;;;;;41.45;14.70;;;23.80;82.20;;;;;;5113405;27;20518;-74
2021/06/29 12:30:58;;;;;;;35.75;13.55;;;23.80;82.40;;;;;;5112741;28;20110;-75
2021/06/29 12:33:24;;;;;;;40.38;14.77;;;23.80;82.30;;;;;;5104497;28;20040;-74
2021/06/29 12:35:53;;;;;;;30.95;11.82;;;23.80;82.20;;;;;;5121126;27;20042;-75
2021/06/29 12:38:22;;;;;;;34.83;11.70;;;23.80;82.30;;;;;;5119723;27;20161;-75
2021/06/29 12:41:13;;;;;;;33.70;12.75;;;23.80;82.20;;;;;;5121068;27;20471;-70
2021/06/29 12:43:46;;;;;;;32.95;10.98;;;23.70;82.00;;;;;;5113472;27;20028;-70
2021/06/29 12:46:21;;;;;;;35.47;10.85;;;23.70;81.90;;;;;;5109148;27;20048;-70